Moonlight Serenade — A8RD2 — position and weather

sailwx.info

Track history (hours):
 
Tides and Currents Weather Stations Pressure Air Temp Water Temp Dewpoint Dewpoint Depression Visibility Wind Speed Wind Dir Waves Ship Positions

Moonlight Serenade

Last reported at 2017-Nov-08 00:29 UTC. Time now 2017-Nov-19 03:08 UTC.
Position N 22°00' E 114°22'.
Warning: this ship's position is 11 days out of date.

Length 172 m; draft 8.8 m.

Type: Ship. MMSI: 636014073.

Date/timePositionNaut miles runAvg speedWind from/ knotsBaromVisibWave heightAir tempDewpointWater temp
2017-Nov-08 00:29N 22°00' E 114°22'510.7
2017-Nov-08 00:00N 22°05' E 114°22'7 0.4
2017-Nov-07 07:28N 22°08' E 114°15'510.8
2017-Nov-07 06:59N 22°07' E 114°20'511.2
2017-Nov-07 06:30N 22°07' E 114°26'612.4
2017-Nov-07 06:00N 22°07' E 114°33'713.4
2017-Nov-07 05:31N 22°08' E 114°40'713.2
2017-Nov-07 05:00N 22°07' E 114°47'713.5
2017-Nov-07 04:30N 22°05' E 114°54'713.7
2017-Nov-07 03:59N 22°04' E 115°02'714.1
2017-Nov-07 03:30N 22°03' E 115°09'713.9
2017-Nov-07 03:00N 22°03' E 115°16'1713.9
2017-Nov-07 01:47N 22°02' E 115°35'514.1
2017-Nov-07 01:27N 22°02' E 115°40'  
Track history (hours):
 
Tides and Currents Weather Stations Pressure Air Temp Water Temp Dewpoint Dewpoint Depression Visibility Wind Speed Wind Dir Waves Ship Positions

Moonlight Serenade

Last reported at 2017-Nov-08 00:29 UTC. Time now 2017-Nov-19 03:08 UTC.
Position N 22°00' E 114°22'.
Warning: this ship's position is 11 days out of date.

Length 172 m; draft 8.8 m.

Type: Ship. MMSI: 636014073.

Date/timePositionNaut miles runAvg speedWind from/ knotsBaromVisibWave heightAir tempDewpointWater temp
2017-Nov-08 00:29N 22°00' E 114°22'510.7
2017-Nov-08 00:00N 22°05' E 114°22'7 0.4
2017-Nov-07 07:28N 22°08' E 114°15'510.8
2017-Nov-07 06:59N 22°07' E 114°20'511.2
2017-Nov-07 06:30N 22°07' E 114°26'612.4
2017-Nov-07 06:00N 22°07' E 114°33'713.4
2017-Nov-07 05:31N 22°08' E 114°40'713.2
2017-Nov-07 05:00N 22°07' E 114°47'713.5
2017-Nov-07 04:30N 22°05' E 114°54'713.7
2017-Nov-07 03:59N 22°04' E 115°02'714.1
2017-Nov-07 03:30N 22°03' E 115°09'713.9
2017-Nov-07 03:00N 22°03' E 115°16'1713.9
2017-Nov-07 01:47N 22°02' E 115°35'514.1
2017-Nov-07 01:27N 22°02' E 115°40'  

Dump ship's entire track history